createdAt,value
2023-05-19T00:01:00.884Z,4.60
2023-05-19T00:03:30.457Z,4.90
2023-05-19T00:05:59.247Z,4.73
2023-05-19T00:08:27.819Z,5.30
2023-05-19T00:10:56.686Z,4.67
2023-05-19T00:13:25.147Z,4.33
2023-05-19T00:15:55.287Z,4.57
2023-05-19T00:18:23.786Z,4.53
2023-05-19T00:20:52.462Z,4.87
2023-05-19T00:23:20.933Z,5.10
2023-05-19T00:25:49.517Z,5.00
2023-05-19T00:28:17.855Z,4.30
2023-05-19T00:30:46.348Z,4.80
2023-05-19T00:33:16.214Z,4.83
2023-05-19T00:35:44.832Z,4.53
2023-05-19T00:38:13.264Z,4.93
2023-05-19T00:40:41.714Z,4.77
2023-05-19T00:43:10.282Z,4.50
2023-05-19T00:45:38.743Z,4.97
2023-05-19T00:48:07.302Z,5.43
2023-05-19T00:50:37.087Z,4.70
2023-05-19T00:53:05.662Z,5.20
2023-05-19T00:55:34.060Z,4.87
2023-05-19T00:58:02.500Z,5.27
2023-05-19T01:00:32.061Z,4.60
2023-05-19T01:03:00.871Z,5.30
2023-05-19T01:05:29.417Z,5.10
2023-05-19T01:07:59.301Z,4.87
2023-05-19T01:10:27.790Z,4.83
2023-05-19T01:12:56.287Z,5.13
2023-05-19T01:15:24.847Z,4.83
2023-05-19T01:17:55.607Z,4.47
2023-05-19T01:20:26.015Z,4.37
2023-05-19T01:23:02.650Z,5.07
2023-05-19T01:25:52.113Z,4.77
2023-05-19T01:28:28.173Z,5.33
2023-05-19T01:30:58.260Z,5.17
2023-05-19T01:33:26.711Z,5.00
2023-05-19T01:35:55.339Z,4.87
2023-05-19T01:38:24.117Z,5.23
2023-05-19T01:40:52.621Z,5.20
2023-05-19T01:43:21.805Z,5.40
2023-05-19T01:45:50.343Z,5.20
2023-05-19T01:48:20.308Z,5.37
2023-05-19T01:50:48.789Z,5.67
2023-05-19T01:53:17.242Z,5.07
2023-05-19T01:55:46.354Z,5.10
2023-05-19T01:58:17.697Z,4.90
2023-05-19T02:00:50.510Z,5.27
2023-05-19T02:03:24.574Z,5.10
2023-05-19T02:05:54.592Z,4.53
2023-05-19T02:08:24.162Z,5.33
2023-05-19T02:10:53.646Z,4.83
2023-05-19T02:13:22.296Z,4.93
2023-05-19T02:15:50.737Z,5.13
2023-05-19T02:18:20.442Z,5.13
2023-05-19T02:20:50.327Z,5.43
2023-05-19T02:23:19.005Z,5.30
2023-05-19T02:25:47.467Z,5.23
2023-05-19T02:28:16.380Z,5.60
2023-05-19T02:30:44.791Z,4.90
2023-05-19T02:33:13.190Z,5.10
2023-05-19T02:35:41.973Z,5.33
2023-05-19T02:38:11.781Z,5.80
2023-05-19T02:40:40.163Z,5.50
2023-05-19T02:43:08.671Z,5.40
2023-05-19T02:45:37.102Z,5.77
2023-05-19T02:48:05.738Z,6.13
2023-05-19T02:50:34.246Z,5.83
2023-05-19T02:53:02.861Z,5.90
2023-05-19T02:55:32.647Z,5.60
2023-05-19T02:58:01.228Z,5.33
2023-05-19T03:00:29.842Z,5.60
2023-05-19T03:03:02.840Z,5.70
2023-05-19T03:05:31.533Z,4.97
2023-05-19T03:07:59.979Z,5.53
2023-05-19T03:10:28.358Z,5.60
2023-05-19T03:12:58.173Z,5.33
2023-05-19T03:15:26.741Z,5.60
2023-05-19T03:17:55.291Z,5.70
2023-05-19T03:20:24.560Z,5.40
2023-05-19T03:22:53.117Z,5.70
2023-05-19T03:25:21.727Z,5.53
2023-05-19T03:27:50.137Z,6.00
2023-05-19T03:30:20.197Z,5.53
2023-05-19T03:32:48.773Z,6.00
2023-05-19T03:35:17.329Z,5.80
2023-05-19T03:37:45.785Z,5.57
2023-05-19T03:40:15.565Z,5.77
2023-05-19T03:42:43.979Z,6.27
2023-05-19T03:45:12.732Z,5.67
2023-05-19T03:47:42.647Z,6.00
2023-05-19T03:50:11.672Z,5.80
2023-05-19T03:52:40.061Z,5.83
2023-05-19T03:55:09.192Z,5.50
2023-05-19T03:57:37.832Z,6.10
2023-05-19T04:00:06.946Z,5.70
2023-05-19T04:02:35.530Z,5.67
2023-05-19T04:05:05.800Z,6.40
2023-05-19T04:07:34.212Z,5.63
2023-05-19T04:10:02.714Z,6.03
2023-05-19T04:12:31.186Z,6.63
2023-05-19T04:14:59.637Z,5.70
2023-05-19T04:17:28.174Z,6.27
2023-05-19T04:19:56.761Z,6.30
2023-05-19T04:22:26.704Z,6.00
2023-05-19T04:24:55.208Z,6.37
2023-05-19T04:27:23.632Z,6.87
2023-05-19T04:29:52.739Z,6.23
2023-05-19T04:32:21.221Z,6.13
2023-05-19T04:34:49.623Z,7.47
2023-05-19T04:37:18.134Z,6.90
2023-05-19T04:39:48.333Z,6.17
2023-05-19T04:42:19.243Z,6.50
2023-05-19T04:44:49.314Z,5.67
2023-05-19T04:47:18.125Z,7.00
2023-05-19T04:49:46.558Z,6.27
2023-05-19T04:52:16.129Z,6.17
2023-05-19T04:54:44.575Z,7.23
2023-05-19T04:57:14.455Z,6.50
2023-05-19T04:59:42.866Z,7.20
2023-05-19T05:02:11.372Z,7.30
2023-05-19T05:04:42.692Z,7.13
2023-05-19T05:07:11.282Z,6.93
2023-05-19T05:09:39.721Z,6.87
2023-05-19T05:12:09.098Z,7.07
2023-05-19T05:14:40.329Z,7.70
2023-05-19T05:17:09.657Z,6.27
2023-05-19T05:19:38.327Z,6.87
2023-05-19T05:22:07.452Z,6.70
2023-05-19T05:24:36.270Z,7.33
2023-05-19T05:27:05.785Z,6.90
2023-05-19T05:29:34.288Z,6.90
2023-05-19T05:32:04.124Z,6.67
2023-05-19T05:34:35.958Z,7.13
2023-05-19T05:37:04.420Z,7.00
2023-05-19T05:39:32.927Z,7.30
2023-05-19T05:42:01.310Z,6.50
2023-05-19T05:44:30.966Z,7.37
2023-05-19T05:46:59.673Z,7.30
2023-05-19T05:49:29.795Z,6.63
2023-05-19T05:52:05.583Z,7.40
2023-05-19T05:54:35.335Z,6.90
2023-05-19T05:57:04.249Z,7.77
2023-05-19T05:59:33.986Z,7.37
2023-05-19T06:02:02.754Z,7.40
2023-05-19T06:04:32.923Z,7.40
2023-05-19T06:07:02.080Z,7.53
2023-05-19T06:09:30.928Z,6.90
2023-05-19T06:11:59.627Z,6.97
2023-05-19T06:14:28.045Z,8.07
2023-05-19T06:16:56.611Z,7.67
2023-05-19T06:19:25.795Z,7.07
2023-05-19T06:21:56.278Z,6.90
2023-05-19T06:24:24.749Z,7.50
2023-05-19T06:26:53.403Z,7.70
2023-05-19T06:29:21.848Z,7.40
2023-05-19T06:31:50.328Z,6.97
2023-05-19T06:34:18.971Z,7.37
2023-05-19T06:36:47.434Z,7.27
2023-05-19T06:39:17.308Z,7.50
2023-05-19T06:41:45.956Z,7.03
2023-05-19T06:44:14.455Z,7.17
2023-05-19T06:46:44.417Z,7.57
2023-05-19T06:49:12.909Z,7.37
2023-05-19T06:51:41.402Z,6.83
2023-05-19T06:54:11.104Z,6.47
2023-05-19T06:56:40.928Z,6.33
2023-05-19T06:59:09.493Z,6.73
2023-05-19T07:01:37.955Z,7.27
2023-05-19T07:04:06.935Z,6.53
2023-05-19T07:06:35.479Z,7.10
2023-05-19T07:09:05.545Z,6.40
2023-05-19T07:11:34.268Z,6.43
2023-05-19T07:14:04.179Z,6.77
2023-05-19T07:16:32.668Z,7.17
2023-05-19T07:19:01.157Z,6.57
2023-05-19T07:21:29.618Z,7.33
2023-05-19T07:23:58.113Z,7.47
2023-05-19T07:26:26.868Z,7.20
2023-05-19T07:28:55.314Z,6.50
2023-05-19T07:31:25.193Z,7.23
2023-05-19T07:33:54.625Z,6.73
2023-05-19T07:36:23.369Z,6.50
2023-05-19T07:38:51.902Z,6.63
2023-05-19T07:41:21.600Z,5.93
2023-05-19T07:43:49.997Z,6.40
2023-05-19T07:46:18.612Z,6.63
2023-05-19T07:48:48.489Z,6.27
2023-05-19T07:51:17.050Z,6.27
2023-05-19T07:53:47.087Z,5.40
2023-05-19T07:56:15.746Z,5.77
2023-05-19T07:58:44.241Z,5.20
2023-05-19T08:01:12.598Z,5.63
2023-05-19T08:03:41.223Z,5.10
2023-05-19T08:06:11.310Z,4.80
2023-05-19T08:08:39.749Z,5.03
2023-05-19T08:11:08.253Z,5.27
2023-05-19T08:13:36.743Z,4.97
2023-05-19T08:16:05.166Z,4.83
2023-05-19T08:18:33.647Z,5.07
2023-05-19T08:21:02.222Z,4.93
2023-05-19T08:23:32.073Z,5.50
2023-05-19T08:26:00.533Z,4.87
2023-05-19T08:28:29.042Z,4.93
2023-05-19T08:30:57.606Z,5.20
2023-05-19T08:33:26.028Z,4.77
2023-05-19T08:35:55.464Z,4.70
2023-05-19T08:38:23.916Z,5.10
2023-05-19T08:40:53.866Z,4.40
2023-05-19T08:43:22.510Z,4.53
2023-05-19T08:45:50.895Z,5.07
2023-05-19T08:48:19.407Z,5.23
2023-05-19T08:50:49.394Z,4.73
2023-05-19T08:53:32.372Z,4.80
2023-05-19T08:56:10.448Z,5.30
2023-05-19T08:58:40.407Z,5.50
2023-05-19T09:01:09.423Z,4.13
2023-05-19T09:03:38.534Z,4.03
2023-05-19T09:06:08.577Z,4.50
2023-05-19T09:08:37.432Z,4.40
2023-05-19T09:11:07.756Z,3.83
2023-05-19T09:13:36.388Z,4.40
2023-05-19T09:16:05.111Z,3.60
2023-05-19T09:18:33.577Z,3.60
2023-05-19T09:21:03.235Z,2.97
2023-05-19T09:23:33.551Z,3.67
2023-05-19T09:26:03.969Z,3.63
2023-05-19T09:28:34.234Z,3.53
2023-05-19T09:31:03.141Z,3.67
2023-05-19T09:33:31.844Z,3.57
2023-05-19T09:36:00.381Z,3.50
2023-05-19T09:38:29.410Z,4.10
2023-05-19T09:40:58.141Z,3.73
2023-05-19T09:43:26.830Z,4.00
2023-05-19T09:45:59.522Z,3.40
2023-05-19T09:48:28.707Z,2.70
2023-05-19T09:50:58.293Z,2.97
2023-05-19T09:53:26.954Z,3.00
2023-05-19T09:55:57.902Z,2.87
2023-05-19T09:58:26.419Z,2.67
2023-05-19T10:00:55.789Z,3.23
2023-05-19T10:03:25.969Z,3.00
2023-05-19T10:05:54.544Z,3.03
2023-05-19T10:08:24.157Z,2.43
2023-05-19T10:10:52.736Z,2.77
2023-05-19T10:13:21.112Z,2.40
2023-05-19T10:15:58.164Z,2.40
2023-05-19T10:18:30.032Z,2.50
2023-05-19T10:20:58.846Z,2.60
2023-05-19T10:23:27.312Z,2.50
2023-05-19T10:25:56.614Z,2.83
2023-05-19T10:28:28.338Z,2.43
2023-05-19T10:30:57.868Z,2.37
2023-05-19T10:33:28.939Z,2.60
2023-05-19T10:36:08.622Z,2.27
2023-05-19T10:38:43.020Z,2.30
2023-05-19T10:41:13.246Z,1.97
2023-05-19T10:43:46.787Z,2.00
2023-05-19T10:46:15.877Z,2.00
2023-05-19T10:48:46.284Z,2.23
2023-05-19T10:51:16.343Z,2.30
2023-05-19T10:53:47.059Z,2.53
2023-05-19T10:56:30.294Z,2.53
2023-05-19T10:58:58.917Z,2.50
2023-05-19T11:01:31.701Z,2.80
2023-05-19T11:04:00.360Z,2.43
2023-05-19T11:06:30.667Z,2.60
2023-05-19T11:09:00.679Z,2.60
2023-05-19T11:11:29.385Z,2.43
2023-05-19T11:13:57.928Z,2.60
2023-05-19T11:16:40.478Z,3.27
2023-05-19T11:19:09.192Z,2.90
2023-05-19T11:21:46.947Z,2.60
2023-05-19T11:24:28.060Z,2.50
2023-05-19T11:26:59.500Z,2.60
2023-05-19T11:29:27.997Z,2.97
2023-05-19T11:31:56.494Z,3.00
2023-05-19T11:34:26.762Z,2.93
2023-05-19T11:36:57.046Z,3.20
2023-05-19T11:39:25.764Z,2.43
2023-05-19T11:41:54.480Z,3.00
2023-05-19T11:44:22.994Z,3.67
2023-05-19T11:46:51.567Z,3.37
2023-05-19T11:49:20.101Z,3.20
2023-05-19T11:51:48.717Z,3.53
2023-05-19T11:54:19.352Z,3.03
2023-05-19T11:56:47.847Z,3.27
2023-05-19T11:59:16.251Z,3.37
2023-05-19T12:01:44.745Z,3.83
2023-05-19T12:04:13.148Z,3.17
2023-05-19T12:06:41.747Z,3.37
2023-05-19T12:09:10.994Z,3.37
2023-05-19T12:11:40.839Z,3.27
2023-05-19T12:14:09.281Z,3.23
2023-05-19T12:16:37.817Z,3.50
2023-05-19T12:19:07.313Z,3.93
2023-05-19T12:21:35.720Z,3.43
2023-05-19T12:24:04.088Z,3.10
2023-05-19T12:26:32.607Z,2.87
2023-05-19T12:29:02.443Z,3.50
2023-05-19T12:31:30.922Z,3.13
2023-05-19T12:34:01.652Z,3.03
2023-05-19T12:36:31.818Z,3.80
2023-05-19T12:39:00.829Z,3.90
2023-05-19T12:41:29.304Z,3.27
2023-05-19T12:43:57.728Z,3.63
2023-05-19T12:46:27.667Z,3.40
2023-05-19T12:49:00.961Z,4.00
2023-05-19T12:51:29.457Z,3.63
2023-05-19T12:53:57.831Z,4.33
2023-05-19T12:56:28.051Z,3.77
2023-05-19T12:58:56.611Z,3.60
2023-05-19T13:01:25.501Z,3.80
2023-05-19T13:03:55.915Z,3.57
2023-05-19T13:06:24.609Z,3.77
2023-05-19T13:08:52.998Z,3.83
2023-05-19T13:11:21.564Z,3.90
2023-05-19T13:13:50.154Z,3.90
2023-05-19T13:16:18.736Z,3.77
2023-05-19T13:18:47.216Z,3.47
2023-05-19T13:21:17.074Z,3.87
2023-05-19T13:23:45.583Z,3.50
2023-05-19T13:26:14.327Z,3.33
2023-05-19T13:28:42.883Z,3.50
2023-05-19T13:31:11.330Z,3.13
2023-05-19T13:33:39.810Z,3.37
2023-05-19T13:36:08.541Z,3.53
2023-05-19T13:38:38.322Z,3.00
2023-05-19T13:41:09.404Z,3.17
2023-05-19T13:43:39.023Z,3.57
2023-05-19T13:46:07.521Z,3.43
2023-05-19T13:48:36.384Z,3.50
2023-05-19T13:51:04.888Z,3.00
2023-05-19T13:53:34.647Z,3.50
2023-05-19T13:56:04.471Z,3.30
2023-05-19T13:58:32.870Z,2.90
2023-05-19T14:01:01.497Z,2.80
2023-05-19T14:03:30.216Z,3.03
2023-05-19T14:05:58.780Z,3.10
2023-05-19T14:08:27.262Z,3.00
2023-05-19T14:10:57.125Z,2.70
2023-05-19T14:13:33.814Z,3.00
2023-05-19T14:16:03.832Z,3.03
2023-05-19T14:18:32.632Z,3.20
2023-05-19T14:21:01.221Z,3.40
2023-05-19T14:23:30.459Z,2.77
2023-05-19T14:26:01.859Z,3.20
2023-05-19T14:28:31.898Z,3.27
2023-05-19T14:31:00.357Z,3.60
2023-05-19T14:33:31.059Z,3.30
2023-05-19T14:36:01.464Z,3.50
2023-05-19T14:38:29.946Z,3.40
2023-05-19T14:40:58.420Z,3.13
2023-05-19T14:43:27.113Z,2.70
2023-05-19T14:45:58.015Z,3.20
2023-05-19T14:48:26.542Z,3.10
2023-05-19T14:50:55.012Z,2.93
2023-05-19T14:53:24.460Z,2.83
2023-05-19T14:55:57.032Z,3.43
2023-05-19T14:58:28.365Z,2.90
2023-05-19T15:01:00.742Z,2.93
2023-05-19T15:03:29.270Z,3.33
2023-05-19T15:05:57.862Z,3.43
2023-05-19T15:08:26.355Z,3.23
2023-05-19T15:10:54.707Z,3.40
2023-05-19T15:13:23.257Z,2.53
2023-05-19T15:15:54.770Z,3.30
2023-05-19T15:18:28.807Z,3.20
2023-05-19T15:20:57.195Z,3.20
2023-05-19T15:23:25.629Z,3.20
2023-05-19T15:25:54.244Z,3.20
2023-05-19T15:28:22.728Z,3.00
2023-05-19T15:30:51.207Z,3.17
2023-05-19T15:33:19.860Z,3.10
2023-05-19T15:35:51.720Z,4.97
2023-05-19T15:38:20.519Z,3.50
2023-05-19T15:40:48.996Z,3.67
2023-05-19T15:43:17.581Z,3.50
2023-05-19T15:45:46.133Z,3.17
2023-05-19T15:48:14.717Z,2.87
2023-05-19T15:50:43.227Z,3.43
2023-05-19T15:53:13.132Z,3.10
2023-05-19T15:55:41.682Z,2.30
2023-05-19T15:58:10.210Z,3.07
2023-05-19T16:00:38.630Z,4.27
2023-05-19T16:03:07.119Z,3.83
2023-05-19T16:05:35.954Z,8.00
2023-05-19T16:08:05.932Z,3.93
2023-05-19T16:10:36.880Z,3.43
2023-05-19T16:13:05.408Z,3.37
2023-05-19T16:15:33.774Z,4.33
2023-05-19T16:18:02.447Z,9.30
2023-05-19T16:20:31.126Z,3.17
2023-05-19T16:22:59.825Z,2.47
2023-05-19T16:25:28.213Z,2.30
2023-05-19T16:27:58.044Z,3.07
2023-05-19T16:30:28.064Z,2.97
2023-05-19T16:32:56.629Z,3.27
2023-05-19T16:35:25.204Z,3.10
2023-05-19T16:37:53.645Z,3.43
2023-05-19T16:40:22.055Z,3.73
2023-05-19T16:42:50.651Z,3.80
2023-05-19T16:45:20.556Z,4.13
2023-05-19T16:47:48.936Z,10.43
2023-05-19T16:50:17.676Z,5.50
2023-05-19T16:52:46.492Z,3.87
2023-05-19T16:55:19.586Z,3.37
2023-05-19T16:57:48.214Z,3.00
2023-05-19T17:00:16.909Z,3.00
2023-05-19T17:02:46.780Z,3.30
2023-05-19T17:05:15.271Z,2.70
2023-05-19T17:07:43.772Z,3.43
2023-05-19T17:10:12.325Z,2.60
2023-05-19T17:12:40.722Z,2.80
2023-05-19T17:15:09.731Z,2.80
2023-05-19T17:17:38.107Z,3.63
2023-05-19T17:20:09.021Z,3.37
2023-05-19T17:22:37.616Z,3.03
2023-05-19T17:25:06.397Z,3.30
2023-05-19T17:27:34.800Z,3.63
2023-05-19T17:30:03.218Z,4.00
2023-05-19T17:32:35.810Z,3.60
2023-05-19T17:35:06.484Z,3.57
2023-05-19T17:37:36.383Z,3.90
2023-05-19T17:40:04.948Z,3.20
2023-05-19T17:42:33.317Z,3.20
2023-05-19T17:45:01.724Z,4.03
2023-05-19T17:47:30.167Z,3.63
2023-05-19T17:49:58.633Z,3.70
2023-05-19T17:52:27.394Z,3.33
2023-05-19T17:54:57.612Z,3.33
2023-05-19T17:57:27.195Z,3.37
2023-05-19T17:59:55.940Z,3.07
2023-05-19T18:02:24.663Z,3.23
2023-05-19T18:04:53.464Z,3.93
2023-05-19T18:07:23.965Z,3.50
2023-05-19T18:09:52.631Z,3.23
2023-05-19T18:12:22.852Z,3.13
2023-05-19T18:14:51.283Z,3.67
2023-05-19T18:17:19.724Z,3.10
2023-05-19T18:19:49.369Z,3.50
2023-05-19T18:22:17.942Z,3.00
2023-05-19T18:24:46.773Z,3.40
2023-05-19T18:27:15.278Z,3.43
2023-05-19T18:29:45.395Z,3.63
2023-05-19T18:32:14.615Z,3.73
2023-05-19T18:34:43.291Z,3.27
2023-05-19T18:37:11.690Z,3.53
2023-05-19T18:39:40.102Z,4.00
2023-05-19T18:42:08.610Z,3.77
2023-05-19T18:44:37.081Z,3.20
2023-05-19T18:47:07.174Z,3.10
2023-05-19T18:49:35.927Z,3.23
2023-05-19T18:52:04.310Z,3.07
2023-05-19T18:54:32.824Z,3.43
2023-05-19T18:57:02.753Z,3.67
2023-05-19T18:59:31.121Z,4.00
2023-05-19T19:01:59.552Z,3.40
2023-05-19T19:04:29.524Z,3.43
2023-05-19T19:06:58.198Z,3.97
2023-05-19T19:09:26.612Z,3.87
2023-05-19T19:11:55.032Z,3.73
2023-05-19T19:14:23.417Z,3.73
2023-05-19T19:16:51.820Z,4.30
2023-05-19T19:19:23.723Z,3.80
2023-05-19T19:21:54.104Z,4.70
2023-05-19T19:24:22.499Z,5.43
2023-05-19T19:26:50.911Z,4.20
2023-05-19T19:29:21.897Z,5.00
2023-05-19T19:31:50.701Z,4.73
2023-05-19T19:34:20.301Z,4.00
2023-05-19T19:36:49.647Z,4.43
2023-05-19T19:39:19.455Z,5.00
2023-05-19T19:41:47.955Z,4.93
2023-05-19T19:44:16.586Z,5.00
2023-05-19T19:46:45.096Z,5.57
2023-05-19T19:49:13.597Z,5.07
2023-05-19T19:51:42.423Z,5.40
2023-05-19T19:54:10.938Z,4.80
2023-05-19T19:56:40.803Z,5.13
2023-05-19T19:59:09.246Z,4.70
2023-05-19T20:01:37.823Z,4.73
2023-05-19T20:04:06.716Z,5.30
2023-05-19T20:06:35.393Z,5.33
2023-05-19T20:09:04.307Z,5.30
2023-05-19T20:11:32.747Z,4.90
2023-05-19T20:14:02.742Z,5.60
2023-05-19T20:16:31.445Z,5.30
2023-05-19T20:19:00.111Z,5.63
2023-05-19T20:21:28.827Z,6.10
2023-05-19T20:23:57.690Z,6.10
2023-05-19T20:26:27.167Z,5.43
2023-05-19T20:28:55.932Z,5.87
2023-05-19T20:31:25.959Z,5.77
2023-05-19T20:33:54.493Z,5.67
2023-05-19T20:36:22.980Z,6.57
2023-05-19T20:38:51.852Z,5.17
2023-05-19T20:41:20.778Z,4.90
2023-05-19T20:43:49.192Z,5.73
2023-05-19T20:46:18.017Z,5.20
2023-05-19T20:48:47.878Z,5.77
2023-05-19T20:51:16.305Z,5.47
2023-05-19T20:53:45.112Z,5.83
2023-05-19T20:56:14.013Z,5.30
2023-05-19T20:58:42.444Z,5.70
2023-05-19T21:01:10.997Z,5.80
2023-05-19T21:03:42.582Z,5.57
2023-05-19T21:06:12.466Z,5.63
2023-05-19T21:08:40.924Z,5.60
2023-05-19T21:11:09.390Z,5.37
2023-05-19T21:13:39.214Z,5.70
2023-05-19T21:16:08.222Z,5.10
2023-05-19T21:18:39.629Z,5.03
2023-05-19T21:21:09.397Z,5.00
2023-05-19T21:23:39.189Z,5.83
2023-05-19T21:26:07.894Z,5.00
2023-05-19T21:28:36.705Z,5.33
2023-05-19T21:31:06.126Z,4.63
2023-05-19T21:33:34.752Z,5.70
2023-05-19T21:36:03.416Z,5.13
2023-05-19T21:38:31.805Z,5.10
2023-05-19T21:41:03.188Z,4.93
2023-05-19T21:43:31.610Z,4.97
2023-05-19T21:46:00.240Z,5.30
2023-05-19T21:48:28.609Z,5.13
2023-05-19T21:50:57.770Z,5.30
2023-05-19T21:53:29.320Z,5.10
2023-05-19T21:55:57.730Z,5.03
2023-05-19T21:58:27.509Z,5.73
2023-05-19T22:00:56.115Z,5.10
2023-05-19T22:03:30.804Z,4.83
2023-05-19T22:05:59.300Z,5.17
2023-05-19T22:08:27.784Z,5.13
2023-05-19T22:10:56.386Z,4.90
2023-05-19T22:13:24.930Z,4.87
2023-05-19T22:15:54.852Z,4.87
2023-05-19T22:18:23.562Z,4.83
2023-05-19T22:20:54.982Z,4.90
2023-05-19T22:23:23.560Z,5.57
2023-05-19T22:25:51.910Z,4.73
2023-05-19T22:28:20.461Z,5.03
2023-05-19T22:30:49.089Z,5.27
2023-05-19T22:33:18.826Z,5.10
2023-05-19T22:35:48.281Z,4.60
2023-05-19T22:38:16.829Z,4.70
2023-05-19T22:40:45.266Z,4.53
2023-05-19T22:43:13.684Z,4.43
2023-05-19T22:45:42.121Z,4.60
2023-05-19T22:48:10.694Z,5.20
2023-05-19T22:50:40.749Z,4.93
2023-05-19T22:53:09.326Z,4.40
2023-05-19T22:55:37.749Z,4.40
2023-05-19T22:58:06.308Z,5.00
2023-05-19T23:00:34.672Z,4.60
2023-05-19T23:03:03.202Z,4.83
2023-05-19T23:05:31.972Z,4.93
2023-05-19T23:08:02.098Z,4.50
2023-05-19T23:10:30.714Z,4.93
2023-05-19T23:12:59.208Z,4.50
2023-05-19T23:15:28.113Z,4.70
2023-05-19T23:17:56.634Z,5.03
2023-05-19T23:20:25.201Z,4.37
2023-05-19T23:22:53.838Z,5.77
2023-05-19T23:25:23.697Z,5.10
2023-05-19T23:27:55.304Z,5.20
2023-05-19T23:30:24.156Z,5.00
2023-05-19T23:32:53.041Z,5.37
2023-05-19T23:35:21.683Z,5.70
2023-05-19T23:37:50.126Z,5.10
2023-05-19T23:40:18.776Z,5.50
2023-05-19T23:42:48.670Z,5.23
2023-05-19T23:45:17.428Z,5.37
2023-05-19T23:47:45.991Z,6.00
2023-05-19T23:50:14.450Z,4.63
2023-05-19T23:52:43.168Z,5.20
2023-05-19T23:55:13.073Z,5.20
2023-05-19T23:57:42.711Z,5.37
